createdAt,value
2018-11-04T00:01:56.280Z,102131.09
2018-11-04T00:04:24.422Z,102128.97
2018-11-04T00:06:52.565Z,102122.08
2018-11-04T00:09:20.709Z,102119.86
2018-11-04T00:11:48.823Z,102117.69
2018-11-04T00:14:16.965Z,102114.69
2018-11-04T00:16:45.105Z,102112.95
2018-11-04T00:19:13.250Z,102106.92
2018-11-04T00:21:41.389Z,102106.05
2018-11-04T00:24:09.665Z,102098.23
2018-11-04T00:26:37.677Z,102098.25
2018-11-04T00:29:05.844Z,102093.07
2018-11-04T00:31:33.981Z,102096.52
2018-11-04T00:34:02.085Z,102091.34
2018-11-04T00:36:30.258Z,102088.33
2018-11-04T00:38:58.421Z,102090.05
2018-11-04T00:41:26.537Z,102090.06
2018-11-04T00:48:53.790Z,102071.94
2018-11-04T00:51:21.900Z,102077.12
2018-11-04T00:53:50.073Z,102072.80
2018-11-04T00:56:18.204Z,102068.09
2018-11-04T00:58:46.325Z,102058.14
2018-11-04T01:01:14.430Z,102054.69
2018-11-04T01:03:43.259Z,102053.86
2018-11-04T01:06:11.365Z,102054.69
2018-11-04T01:08:39.501Z,102053.41
2018-11-04T01:11:07.648Z,102040.94
2018-11-04T01:13:35.765Z,102058.59
2018-11-04T01:16:03.889Z,102042.20
2018-11-04T01:18:32.022Z,102038.77
2018-11-04T01:21:00.179Z,102025.40
2018-11-04T01:23:28.307Z,102020.16
2018-11-04T01:25:56.436Z,102026.20
2018-11-04T01:28:24.613Z,102021.50
2018-11-04T01:30:52.758Z,102023.20
2018-11-04T01:33:20.914Z,102016.27
2018-11-04T01:35:49.059Z,102009.31
2018-11-04T01:38:17.201Z,102012.80
2018-11-04T01:40:45.351Z,102001.62
2018-11-04T01:43:13.474Z,102002.89
2018-11-04T01:45:41.607Z,101995.49
2018-11-04T01:48:09.741Z,101985.05
2018-11-04T01:50:37.894Z,101988.52
2018-11-04T01:53:06.018Z,101984.26
2018-11-04T01:55:34.169Z,101983.80
2018-11-04T01:58:02.330Z,101976.02
2018-11-04T02:00:30.460Z,101967.83
2018-11-04T02:02:58.597Z,101962.23
2018-11-04T02:05:26.727Z,101962.61
2018-11-04T02:07:54.866Z,101952.66
2018-11-04T02:10:23.032Z,101948.80
2018-11-04T02:12:51.188Z,101946.25
2018-11-04T02:15:19.328Z,101944.56
2018-11-04T02:17:47.458Z,101938.08
2018-11-04T02:20:15.567Z,101935.45
2018-11-04T02:22:43.741Z,101935.02
2018-11-04T02:25:13.247Z,101927.29
2018-11-04T02:27:42.150Z,101924.70
2018-11-04T02:30:12.927Z,101922.57
2018-11-04T02:32:41.372Z,101924.31
2018-11-04T02:35:09.622Z,101915.73
2018-11-04T02:37:37.772Z,101916.59
2018-11-04T02:40:05.954Z,101908.30
2018-11-04T02:42:34.141Z,101910.45
2018-11-04T02:45:02.273Z,101907.87
2018-11-04T02:47:30.421Z,101906.06
2018-11-04T02:49:58.586Z,101904.33
2018-11-04T02:52:26.729Z,101901.34
2018-11-04T02:54:54.848Z,101896.17
2018-11-04T02:57:23.005Z,101895.80
2018-11-04T02:59:51.125Z,101891.03
2018-11-04T03:02:19.269Z,101895.83
2018-11-04T03:04:47.429Z,101892.75
2018-11-04T03:07:15.529Z,101884.52
2018-11-04T03:09:43.683Z,101877.65
2018-11-04T03:12:11.805Z,101879.01
2018-11-04T03:14:39.937Z,101879.87
2018-11-04T03:17:08.114Z,101879.86
2018-11-04T03:19:36.277Z,101875.95
2018-11-04T03:22:04.863Z,101867.70
2018-11-04T03:24:33.144Z,101866.84
2018-11-04T03:27:01.158Z,101860.34
2018-11-04T03:29:29.317Z,101855.20
2018-11-04T03:31:57.473Z,101858.19
2018-11-04T03:34:25.627Z,101853.13
2018-11-04T03:36:53.773Z,101853.55
2018-11-04T03:39:21.930Z,101855.28
2018-11-04T03:41:50.070Z,101846.64
2018-11-04T03:44:18.220Z,101841.48
2018-11-04T03:46:46.369Z,101836.82
2018-11-04T03:49:14.860Z,101834.55
2018-11-04T03:51:42.986Z,101832.72
2018-11-04T03:54:11.125Z,101831.02
2018-11-04T03:56:39.298Z,101831.42
2018-11-04T03:59:07.499Z,101829.16
2018-11-04T04:01:35.653Z,101826.09
2018-11-04T04:04:03.797Z,101820.03
2018-11-04T04:06:31.950Z,101820.81
2018-11-04T04:09:00.100Z,101812.66
2018-11-04T04:11:28.256Z,101811.69
2018-11-04T04:13:56.389Z,101811.66
2018-11-04T04:16:24.549Z,101802.59
2018-11-04T04:18:52.722Z,101795.64
2018-11-04T04:21:21.597Z,101802.03
2018-11-04T04:23:49.717Z,101799.91
2018-11-04T04:26:17.861Z,101802.34
2018-11-04T04:28:45.985Z,101798.81
2018-11-04T04:31:14.113Z,101798.40
2018-11-04T04:33:42.508Z,101791.37
2018-11-04T04:36:10.599Z,101791.37
2018-11-04T04:38:38.745Z,101783.57
2018-11-04T04:41:07.013Z,101792.05
2018-11-04T04:43:35.197Z,101787.31
2018-11-04T04:46:03.331Z,101791.97
2018-11-04T04:48:31.469Z,101783.59
2018-11-04T04:50:59.602Z,101786.08
2018-11-04T04:53:27.724Z,101778.72
2018-11-04T04:55:57.153Z,101776.98
2018-11-04T04:58:25.330Z,101780.23
2018-11-04T05:00:54.067Z,101773.71
2018-11-04T05:03:22.564Z,101769.77
2018-11-04T05:05:50.709Z,101772.37
2018-11-04T05:08:18.825Z,101763.69
2018-11-04T05:10:46.925Z,101761.51
2018-11-04T05:13:15.064Z,101763.27
2018-11-04T05:15:43.211Z,101756.76
2018-11-04T05:18:11.347Z,101755.95
2018-11-04T05:20:39.458Z,101748.12
2018-11-04T05:23:07.585Z,101747.68
2018-11-04T05:25:35.766Z,101751.57
2018-11-04T05:28:03.906Z,101759.37
2018-11-04T05:30:32.060Z,101749.00
2018-11-04T05:33:00.183Z,101758.03
2018-11-04T05:35:28.332Z,101748.09
2018-11-04T05:37:56.498Z,101749.73
2018-11-04T05:40:24.634Z,101749.37
2018-11-04T05:42:52.772Z,101746.89
2018-11-04T05:45:20.937Z,101752.89
2018-11-04T05:47:49.066Z,101744.62
2018-11-04T05:50:17.221Z,101740.88
2018-11-04T05:52:45.372Z,101745.28
2018-11-04T05:55:13.509Z,101746.89
2018-11-04T05:57:41.689Z,101743.39
2018-11-04T06:00:10.473Z,101743.42
2018-11-04T06:02:38.653Z,101742.52
2018-11-04T06:05:07.760Z,101735.20
2018-11-04T06:07:35.896Z,101735.30
2018-11-04T06:10:04.070Z,101742.27
2018-11-04T06:12:32.230Z,101743.20
2018-11-04T06:15:00.353Z,101746.25
2018-11-04T06:17:28.508Z,101746.23
2018-11-04T06:19:56.676Z,101748.94
2018-11-04T06:22:24.901Z,101749.34
2018-11-04T06:24:53.045Z,101745.81
2018-11-04T06:27:21.141Z,101748.87
2018-11-04T06:29:49.284Z,101746.74
2018-11-04T06:32:17.425Z,101753.96
2018-11-04T06:34:45.690Z,101756.11
2018-11-04T06:37:13.685Z,101756.45
2018-11-04T06:39:41.874Z,101755.09
2018-11-04T06:42:10.003Z,101745.98
2018-11-04T06:44:38.193Z,101738.65
2018-11-04T06:47:07.335Z,101748.12
2018-11-04T06:49:35.470Z,101744.23
2018-11-04T06:52:03.573Z,101742.78
2018-11-04T06:54:31.701Z,101739.72
2018-11-04T06:56:59.845Z,101745.66
2018-11-04T06:59:28.004Z,101740.42
2018-11-04T07:01:56.133Z,101736.68
2018-11-04T07:04:25.596Z,101736.97
2018-11-04T07:06:53.728Z,101742.19
2018-11-04T07:09:21.917Z,101739.13
2018-11-04T07:11:50.424Z,101732.59
2018-11-04T07:14:19.133Z,101738.24
2018-11-04T07:16:47.274Z,101737.72
2018-11-04T07:19:15.895Z,101738.57
2018-11-04T07:21:44.046Z,101734.94
2018-11-04T07:24:12.233Z,101740.52
2018-11-04T07:26:40.399Z,101738.23
2018-11-04T07:29:09.437Z,101735.19
2018-11-04T07:31:37.576Z,101736.84
2018-11-04T07:34:06.141Z,101735.52
2018-11-04T07:36:34.489Z,101740.72
2018-11-04T07:39:02.618Z,101736.02
2018-11-04T07:41:30.794Z,101736.27
2018-11-04T07:43:58.934Z,101741.46
2018-11-04T07:46:27.073Z,101739.11
2018-11-04T07:48:55.255Z,101741.97
2018-11-04T07:51:23.405Z,101736.75
2018-11-04T07:53:51.587Z,101737.25
2018-11-04T07:56:19.685Z,101731.31
2018-11-04T07:58:47.832Z,101731.91
2018-11-04T08:01:15.996Z,101735.33
2018-11-04T08:03:44.136Z,101730.58
2018-11-04T08:06:12.289Z,101727.03
2018-11-04T08:08:40.416Z,101721.72
2018-11-04T08:11:08.558Z,101717.74
2018-11-04T08:13:36.752Z,101718.95
2018-11-04T08:16:05.079Z,101711.34
2018-11-04T08:18:33.228Z,101699.91
2018-11-04T08:21:01.365Z,101704.42
2018-11-04T08:23:29.497Z,101708.85
2018-11-04T08:25:57.613Z,101714.08
2018-11-04T08:28:25.754Z,101704.67
2018-11-04T08:30:53.888Z,101703.05
2018-11-04T08:33:22.026Z,101694.90
2018-11-04T08:35:50.203Z,101694.87
2018-11-04T08:38:18.317Z,101687.46
2018-11-04T08:40:46.550Z,101691.30
2018-11-04T08:43:14.678Z,101689.23
2018-11-04T08:45:42.859Z,101683.51
2018-11-04T08:48:10.951Z,101685.92
2018-11-04T08:50:39.077Z,101681.58
2018-11-04T08:53:07.269Z,101687.59
2018-11-04T08:55:35.371Z,101680.59
2018-11-04T08:58:03.519Z,101678.86
2018-11-04T09:00:31.638Z,101671.88
2018-11-04T09:02:59.781Z,101675.69
2018-11-04T09:05:27.899Z,101668.72
2018-11-04T09:07:56.049Z,101667.92
2018-11-04T09:10:24.178Z,101671.34
2018-11-04T09:12:52.312Z,101655.86
2018-11-04T09:15:20.422Z,101665.39
2018-11-04T09:17:48.600Z,101660.10
2018-11-04T09:20:17.413Z,101648.41
2018-11-04T09:22:45.581Z,101651.89
2018-11-04T09:25:14.061Z,101652.59
2018-11-04T09:27:42.217Z,101650.84
2018-11-04T09:30:12.883Z,101651.91
2018-11-04T09:32:41.037Z,101653.93
2018-11-04T09:35:10.152Z,101646.71
2018-11-04T09:37:37.977Z,101650.98
2018-11-04T09:40:07.438Z,101655.27
2018-11-04T09:42:35.629Z,101649.83
2018-11-04T09:45:03.778Z,101644.97
2018-11-04T09:47:31.994Z,101639.38
2018-11-04T09:50:00.228Z,101642.31
2018-11-04T09:52:28.321Z,101637.37
2018-11-04T09:54:56.433Z,101630.51
2018-11-04T09:57:24.613Z,101626.53
2018-11-04T09:59:52.781Z,101624.16
2018-11-04T10:02:20.921Z,101624.20
2018-11-04T10:04:49.070Z,101621.59
2018-11-04T10:07:17.289Z,101623.89
2018-11-04T10:09:45.424Z,101626.13
2018-11-04T10:12:13.565Z,101616.84
2018-11-04T10:14:41.714Z,101608.36
2018-11-04T10:17:09.842Z,101608.09
2018-11-04T10:19:38.070Z,101603.18
2018-11-04T10:22:06.160Z,101598.23
2018-11-04T10:24:34.283Z,101597.45
2018-11-04T10:27:02.418Z,101592.34
2018-11-04T10:29:30.533Z,101596.53
2018-11-04T10:31:58.672Z,101598.92
2018-11-04T10:34:26.829Z,101599.98
2018-11-04T10:36:54.979Z,101598.52
2018-11-04T10:39:23.097Z,101587.95
2018-11-04T10:41:51.231Z,101597.25
2018-11-04T10:44:19.376Z,101602.91
2018-11-04T10:46:47.526Z,101601.69
2018-11-04T10:49:15.673Z,101590.65
2018-11-04T10:51:43.798Z,101589.26
2018-11-04T10:54:11.965Z,101576.59
2018-11-04T10:56:40.110Z,101578.05
2018-11-04T10:59:08.276Z,101578.36
2018-11-04T11:01:36.471Z,101577.07
2018-11-04T11:04:04.741Z,101579.48
2018-11-04T11:06:32.879Z,101568.34
2018-11-04T11:09:01.058Z,101563.39
2018-11-04T11:11:29.241Z,101563.98
2018-11-04T11:13:57.384Z,101567.66
2018-11-04T11:16:25.530Z,101562.03
2018-11-04T11:18:53.675Z,101556.28
2018-11-04T11:21:21.811Z,101551.56
2018-11-04T11:23:49.941Z,101552.63
2018-11-04T11:26:18.127Z,101546.70
2018-11-04T11:28:46.263Z,101545.02
2018-11-04T11:31:14.401Z,101537.61
2018-11-04T11:33:42.781Z,101542.59
2018-11-04T11:36:10.909Z,101545.30
2018-11-04T11:38:39.078Z,101544.00
2018-11-04T11:41:07.195Z,101540.89
2018-11-04T11:43:35.341Z,101537.11
2018-11-04T11:46:03.480Z,101528.03
2018-11-04T11:48:31.640Z,101525.14
2018-11-04T11:50:59.737Z,101522.17
2018-11-04T11:53:27.885Z,101518.87
2018-11-04T11:55:56.042Z,101514.10
2018-11-04T11:58:24.198Z,101515.46
2018-11-04T12:00:52.582Z,101506.12
2018-11-04T12:03:20.715Z,101512.45
2018-11-04T12:05:48.847Z,101507.77
2018-11-04T12:08:16.993Z,101508.62
2018-11-04T12:10:45.161Z,101507.78
2018-11-04T12:13:13.318Z,101506.47
2018-11-04T12:15:41.483Z,101499.84
2018-11-04T12:18:09.669Z,101497.09
2018-11-04T12:20:38.007Z,101493.64
2018-11-04T12:23:06.147Z,101488.56
2018-11-04T12:25:34.364Z,101481.41
2018-11-04T12:28:02.565Z,101476.56
2018-11-04T12:30:30.733Z,101472.61
2018-11-04T12:32:58.877Z,101467.67
2018-11-04T12:35:27.228Z,101472.38
2018-11-04T12:37:55.227Z,101475.05
2018-11-04T12:40:23.393Z,101465.68
2018-11-04T12:42:51.574Z,101461.67
2018-11-04T12:45:19.716Z,101459.42
2018-11-04T12:47:47.885Z,101450.00
2018-11-04T12:50:16.056Z,101452.38
2018-11-04T12:52:44.240Z,101448.75
2018-11-04T12:55:12.420Z,101445.17
2018-11-04T12:57:40.660Z,101442.19
2018-11-04T13:00:11.435Z,101435.38
2018-11-04T13:02:39.728Z,101433.27
2018-11-04T13:05:08.904Z,101432.37
2018-11-04T13:07:37.073Z,101431.06
2018-11-04T13:10:06.795Z,101437.02
2018-11-04T13:12:34.962Z,101431.11
2018-11-04T13:15:03.122Z,101426.86
2018-11-04T13:17:31.349Z,101426.28
2018-11-04T13:19:59.520Z,101430.53
2018-11-04T13:22:27.889Z,101419.36
2018-11-04T13:24:56.065Z,101422.38
2018-11-04T13:27:24.219Z,101416.52
2018-11-04T13:29:52.429Z,101412.48
2018-11-04T13:32:20.575Z,101419.31
2018-11-04T13:34:48.784Z,101415.55
2018-11-04T13:37:16.933Z,101410.73
2018-11-04T13:39:45.098Z,101413.33
2018-11-04T13:42:13.274Z,101404.83
2018-11-04T13:44:41.371Z,101402.95
2018-11-04T13:47:09.510Z,101400.28
2018-11-04T13:49:37.617Z,101401.20
2018-11-04T13:52:05.765Z,101412.44
2018-11-04T13:54:34.106Z,101411.64
2018-11-04T13:57:02.284Z,101408.62
2018-11-04T13:59:30.446Z,101413.34
2018-11-04T14:01:58.590Z,101410.89
2018-11-04T14:04:26.734Z,101413.45
2018-11-04T14:06:54.902Z,101409.44
2018-11-04T14:09:23.064Z,101412.14
2018-11-04T14:11:51.191Z,101406.98
2018-11-04T14:14:19.339Z,101410.84
2018-11-04T14:16:47.486Z,101406.41
2018-11-04T14:19:15.649Z,101408.56
2018-11-04T14:21:43.858Z,101408.22
2018-11-04T14:24:12.024Z,101407.49
2018-11-04T14:26:40.193Z,101401.42
2018-11-04T14:29:08.345Z,101396.70
2018-11-04T14:31:36.547Z,101402.59
2018-11-04T14:34:04.842Z,101403.00
2018-11-04T14:36:33.019Z,101397.20
2018-11-04T14:39:01.225Z,101406.22
2018-11-04T14:41:29.448Z,101401.63
2018-11-04T14:43:57.622Z,101400.84
2018-11-04T14:46:25.790Z,101396.77
2018-11-04T14:48:53.961Z,101393.77
2018-11-04T14:51:22.097Z,101391.24
2018-11-04T14:53:51.424Z,101389.72
2018-11-04T14:56:22.770Z,101388.48
2018-11-04T14:58:51.065Z,101380.98
2018-11-04T15:01:19.401Z,101382.46
2018-11-04T15:03:47.530Z,101379.55
2018-11-04T15:06:15.745Z,101377.97
2018-11-04T15:08:43.976Z,101379.85
2018-11-04T15:11:12.133Z,101374.62
2018-11-04T15:13:41.465Z,101377.34
2018-11-04T15:16:09.617Z,101369.10
2018-11-04T15:18:37.956Z,101364.45
2018-11-04T15:21:06.103Z,101363.42
2018-11-04T15:23:34.230Z,101357.20
2018-11-04T15:26:02.456Z,101355.55
2018-11-04T15:28:30.606Z,101358.86
2018-11-04T15:30:58.797Z,101352.09
2018-11-04T15:33:26.995Z,101345.30
2018-11-04T15:35:55.102Z,101352.27
2018-11-04T15:38:23.320Z,101353.00
2018-11-04T15:40:51.468Z,101351.24
2018-11-04T15:43:19.717Z,101357.38
2018-11-04T15:45:47.922Z,101351.64
2018-11-04T15:53:15.961Z,101341.77
2018-11-04T15:55:44.200Z,101336.83
2018-11-04T15:58:12.418Z,101348.97
2018-11-04T16:00:40.590Z,101346.08
2018-11-04T16:03:08.729Z,101356.47
2018-11-04T16:05:36.989Z,101348.23
2018-11-04T16:08:05.967Z,101354.83
2018-11-04T16:10:34.231Z,101349.03
2018-11-04T16:13:02.473Z,101344.88
2018-11-04T16:15:30.725Z,101349.19
2018-11-04T16:17:58.939Z,101346.45
2018-11-04T16:20:27.059Z,101355.83
2018-11-04T16:22:55.259Z,101348.67
2018-11-04T16:25:23.454Z,101347.36
2018-11-04T16:27:51.653Z,101346.11
2018-11-04T16:30:19.885Z,101346.84
2018-11-04T16:32:48.290Z,101347.09
2018-11-04T16:35:16.452Z,101345.99
2018-11-04T16:37:45.390Z,101343.78
2018-11-04T16:40:13.482Z,101346.05
2018-11-04T16:42:41.617Z,101346.30
2018-11-04T16:45:12.343Z,101354.92
2018-11-04T16:47:40.790Z,101346.44
2018-11-04T16:50:09.894Z,101350.75
2018-11-04T16:52:38.030Z,101351.97
2018-11-04T16:55:06.939Z,101350.76
2018-11-04T16:57:35.093Z,101352.06
2018-11-04T17:00:03.237Z,101350.76
2018-11-04T17:02:31.485Z,101346.39
2018-11-04T17:04:59.826Z,101344.30
2018-11-04T17:07:28.062Z,101337.22
2018-11-04T17:09:56.359Z,101348.75
2018-11-04T17:12:24.541Z,101349.55
2018-11-04T17:14:52.791Z,101348.45
2018-11-04T17:17:21.110Z,101344.38
2018-11-04T17:19:49.306Z,101343.20
2018-11-04T17:22:17.519Z,101343.29
2018-11-04T17:24:45.674Z,101339.73
2018-11-04T17:27:13.841Z,101344.59
2018-11-04T17:29:42.119Z,101342.83
2018-11-04T17:32:10.326Z,101345.45
2018-11-04T17:34:38.562Z,101341.70
2018-11-04T17:37:07.985Z,101333.42
2018-11-04T17:39:36.274Z,101339.61
2018-11-04T17:42:04.743Z,101340.92
2018-11-04T17:44:33.077Z,101333.20
2018-11-04T17:47:01.200Z,101337.80
2018-11-04T17:49:29.353Z,101329.96
2018-11-04T17:51:57.513Z,101330.87
2018-11-04T17:54:25.690Z,101326.50
2018-11-04T17:56:54.041Z,101325.70
2018-11-04T17:59:22.205Z,101329.50
2018-11-04T18:01:50.366Z,101326.95
2018-11-04T18:04:18.510Z,101327.02
2018-11-04T18:06:46.689Z,101325.07
2018-11-04T18:09:14.837Z,101328.72
2018-11-04T18:11:43.017Z,101325.37
2018-11-04T18:14:11.183Z,101323.09
2018-11-04T18:16:39.405Z,101319.34
2018-11-04T18:19:07.587Z,101315.59
2018-11-04T18:21:35.928Z,101320.82
2018-11-04T18:24:04.126Z,101326.10
2018-11-04T18:26:32.309Z,101316.84
2018-11-04T18:29:00.399Z,101323.61
2018-11-04T18:31:28.558Z,101321.22
2018-11-04T18:38:56.675Z,101320.37
2018-11-04T18:41:24.848Z,101318.39
2018-11-04T18:43:54.421Z,101326.13
2018-11-04T18:46:22.309Z,101319.75
2018-11-04T18:48:50.462Z,101319.24
2018-11-04T18:51:18.581Z,101317.88
2018-11-04T18:53:46.769Z,101314.02
2018-11-04T18:56:15.063Z,101321.09
2018-11-04T18:58:43.182Z,101324.62
2018-11-04T19:01:11.313Z,101322.94
2018-11-04T19:03:40.337Z,101327.41
2018-11-04T19:06:08.502Z,101320.30
2018-11-04T19:08:36.613Z,101323.83
2018-11-04T19:11:05.105Z,101328.98
2018-11-04T19:13:33.252Z,101323.95
2018-11-04T19:16:01.401Z,101315.78
2018-11-04T19:18:29.590Z,101315.66
2018-11-04T19:20:57.749Z,101313.44
2018-11-04T19:23:26.336Z,101310.50
2018-11-04T19:25:54.510Z,101318.61
2018-11-04T19:28:23.366Z,101321.61
2018-11-04T19:30:51.616Z,101321.16
2018-11-04T19:33:19.855Z,101329.96
2018-11-04T19:35:47.997Z,101313.53
2018-11-04T19:38:16.123Z,101313.20
2018-11-04T19:40:44.313Z,101314.35
2018-11-04T19:43:12.565Z,101313.05
2018-11-04T19:45:40.596Z,101317.02
2018-11-04T19:48:08.749Z,101314.30
2018-11-04T19:50:36.870Z,101311.69
2018-11-04T19:53:05.043Z,101302.42
2018-11-04T19:55:33.152Z,101299.75
2018-11-04T19:58:01.300Z,101301.05
2018-11-04T20:00:29.500Z,101301.11
2018-11-04T20:02:57.689Z,101299.08
2018-11-04T20:05:25.887Z,101295.89
2018-11-04T20:07:53.957Z,101301.52
2018-11-04T20:10:22.121Z,101293.66
2018-11-04T20:12:55.657Z,101290.13
2018-11-04T20:15:23.817Z,101287.13
2018-11-04T20:17:51.971Z,101284.91
2018-11-04T20:20:24.597Z,101282.75
2018-11-04T20:22:52.713Z,101282.94
2018-11-04T20:25:26.354Z,101278.84
2018-11-04T20:27:54.459Z,101277.02
2018-11-04T20:30:22.587Z,101277.08
2018-11-04T20:32:56.049Z,101284.33
2018-11-04T20:35:24.185Z,101280.27
2018-11-04T20:37:52.364Z,101280.59
2018-11-04T20:40:25.968Z,101272.89
2018-11-04T20:42:54.128Z,101275.50
2018-11-04T20:45:22.291Z,101266.30
2018-11-04T20:47:55.701Z,101267.27
2018-11-04T20:50:29.224Z,101272.86
2018-11-04T20:52:57.404Z,101262.08
2018-11-04T20:55:29.717Z,101263.84
2018-11-04T20:57:58.592Z,101261.53
2018-11-04T21:00:26.800Z,101257.64
2018-11-04T21:02:55.260Z,101258.56
2018-11-04T21:05:23.441Z,101254.06
2018-11-04T21:07:51.819Z,101255.67
2018-11-04T21:10:19.975Z,101257.12
2018-11-04T21:12:48.147Z,101254.05
2018-11-04T21:15:16.313Z,101253.33
2018-11-04T21:17:44.466Z,101250.71
2018-11-04T21:20:12.641Z,101243.98
2018-11-04T21:22:40.776Z,101247.31
2018-11-04T21:25:09.004Z,101248.16
2018-11-04T21:27:37.114Z,101250.98
2018-11-04T21:30:07.921Z,101251.44
2018-11-04T21:32:36.207Z,101247.91
2018-11-04T21:35:04.462Z,101243.48
2018-11-04T21:37:32.661Z,101242.44
2018-11-04T21:40:00.822Z,101228.57
2018-11-04T21:42:29.138Z,101232.78
2018-11-04T21:44:57.177Z,101225.40
2018-11-04T21:47:25.313Z,101229.96
2018-11-04T21:49:53.458Z,101223.75
2018-11-04T21:52:21.595Z,101229.77
2018-11-04T21:54:49.729Z,101220.37
2018-11-04T21:57:17.889Z,101217.88
2018-11-04T21:59:46.009Z,101215.54
2018-11-04T22:02:14.203Z,101207.18
2018-11-04T22:04:42.347Z,101209.86
2018-11-04T22:07:10.469Z,101210.64
2018-11-04T22:09:38.660Z,101209.92
2018-11-04T22:12:06.816Z,101209.72
2018-11-04T22:14:34.930Z,101197.13
2018-11-04T22:17:03.110Z,101199.41
2018-11-04T22:19:31.249Z,101201.56
2018-11-04T22:21:59.410Z,101198.11
2018-11-04T22:24:27.590Z,101203.06
2018-11-04T22:26:55.741Z,101198.23
2018-11-04T22:29:23.867Z,101194.31
2018-11-04T22:31:52.013Z,101185.17
2018-11-04T22:34:20.156Z,101185.38
2018-11-04T22:36:48.310Z,101179.10
2018-11-04T22:39:16.529Z,101180.09
2018-11-04T22:41:44.665Z,101178.52
2018-11-04T22:44:12.870Z,101182.11
2018-11-04T22:46:41.460Z,101177.22
2018-11-04T22:49:09.849Z,101181.06
2018-11-04T22:51:38.223Z,101180.73
2018-11-04T22:54:06.369Z,101175.39
2018-11-04T22:56:34.556Z,101174.14
2018-11-04T22:59:02.673Z,101174.60
2018-11-04T23:01:30.857Z,101171.86
2018-11-04T23:03:59.004Z,101173.45
2018-11-04T23:06:27.825Z,101170.23
2018-11-04T23:08:55.999Z,101170.23
2018-11-04T23:11:24.141Z,101172.37
2018-11-04T23:13:52.284Z,101172.05
2018-11-04T23:16:20.458Z,101173.23
2018-11-04T23:18:48.722Z,101167.75
2018-11-04T23:21:16.814Z,101168.20
2018-11-04T23:23:44.948Z,101168.01
2018-11-04T23:26:13.079Z,101163.38
2018-11-04T23:28:41.235Z,101162.48
2018-11-04T23:31:09.397Z,101164.91
2018-11-04T23:33:37.598Z,101157.14
2018-11-04T23:36:05.787Z,101153.34
2018-11-04T23:38:33.947Z,101159.33
2018-11-04T23:41:02.073Z,101160.23
2018-11-04T23:43:30.225Z,101159.39
2018-11-04T23:45:58.382Z,101148.48
2018-11-04T23:48:26.568Z,101149.41
2018-11-04T23:50:54.697Z,101151.66
2018-11-04T23:53:22.841Z,101149.92
2018-11-04T23:55:50.977Z,101150.38
2018-11-04T23:58:19.166Z,101153.34
